createdAt,value
2019-03-20T00:01:00.824Z,2.39
2019-03-20T00:03:28.291Z,2.36
2019-03-20T00:05:55.440Z,2.40
2019-03-20T00:08:22.662Z,2.41
2019-03-20T00:10:49.804Z,2.49
2019-03-20T00:13:17.059Z,2.64
2019-03-20T00:15:44.283Z,2.76
2019-03-20T00:18:11.709Z,2.84
2019-03-20T00:20:38.838Z,2.81
2019-03-20T00:23:06.045Z,2.86
2019-03-20T00:25:33.685Z,2.69
2019-03-20T00:28:01.092Z,2.64
2019-03-20T00:30:28.200Z,2.54
2019-03-20T00:32:56.660Z,2.47
2019-03-20T00:35:23.842Z,2.42
2019-03-20T00:37:52.566Z,2.07
2019-03-20T00:40:20.772Z,1.30
2019-03-20T00:42:48.150Z,1.08
2019-03-20T00:45:15.266Z,1.04
2019-03-20T00:47:42.859Z,1.05
2019-03-20T00:50:13.541Z,1.11
2019-03-20T00:52:40.625Z,1.25
2019-03-20T00:55:08.927Z,1.37
2019-03-20T00:57:36.092Z,1.55
2019-03-20T01:00:06.501Z,1.62
2019-03-20T01:02:34.686Z,1.86
2019-03-20T01:05:12.193Z,2.07
2019-03-20T01:07:30.822Z,2.09
2019-03-20T01:09:57.851Z,2.09
2019-03-20T01:12:25.065Z,1.95
2019-03-20T01:14:52.584Z,1.78
2019-03-20T01:17:19.642Z,1.77
2019-03-20T01:19:46.693Z,1.65
2019-03-20T01:22:14.045Z,1.65
2019-03-20T01:24:41.074Z,1.59
2019-03-20T01:27:08.614Z,1.44
2019-03-20T01:29:37.516Z,1.38
2019-03-20T01:32:04.686Z,1.43
2019-03-20T01:34:31.713Z,1.40
2019-03-20T01:36:58.804Z,1.35
2019-03-20T01:39:27.604Z,1.25
2019-03-20T01:41:54.656Z,1.18
2019-03-20T01:44:21.821Z,1.12
2019-03-20T01:46:48.896Z,1.13
2019-03-20T01:49:15.946Z,1.27
2019-03-20T01:51:46.189Z,1.50
2019-03-20T01:54:13.202Z,0.80
2019-03-20T01:56:40.289Z,0.49
2019-03-20T01:59:07.386Z,0.63
2019-03-20T02:01:36.204Z,0.89
2019-03-20T02:04:03.565Z,0.46
2019-03-20T02:06:30.682Z,-0.22
2019-03-20T02:08:57.705Z,-0.23
2019-03-20T02:11:26.948Z,0.33
2019-03-20T02:13:54.075Z,0.56
2019-03-20T02:16:21.162Z,0.77
2019-03-20T02:18:48.679Z,0.75
2019-03-20T02:21:15.919Z,0.63
2019-03-20T02:23:42.989Z,0.60
2019-03-20T02:26:10.483Z,0.58
2019-03-20T02:28:37.588Z,0.51
2019-03-20T02:31:05.717Z,0.74
2019-03-20T02:33:33.171Z,0.81
2019-03-20T02:36:00.329Z,0.89
2019-03-20T02:38:27.464Z,0.97
2019-03-20T02:40:55.718Z,1.05
2019-03-20T02:43:23.061Z,0.93
2019-03-20T02:45:50.101Z,0.87
2019-03-20T02:48:17.180Z,0.98
2019-03-20T02:50:45.573Z,0.98
2019-03-20T02:53:12.594Z,0.91
2019-03-20T02:55:40.910Z,1.03
2019-03-20T02:58:08.392Z,1.08
2019-03-20T03:00:35.441Z,0.98
2019-03-20T03:03:02.775Z,0.29
2019-03-20T03:05:30.238Z,0.16
2019-03-20T03:07:57.282Z,0.17
2019-03-20T03:10:24.333Z,0.12
2019-03-20T03:12:51.735Z,0.07
2019-03-20T03:15:18.814Z,-0.19
2019-03-20T03:17:45.868Z,-0.14
2019-03-20T03:20:13.012Z,0.04
2019-03-20T03:22:40.021Z,0.28
2019-03-20T03:25:07.060Z,0.56
2019-03-20T03:27:34.099Z,0.17
2019-03-20T03:30:01.178Z,0.21
2019-03-20T03:32:28.196Z,0.49
2019-03-20T03:34:55.480Z,0.68
2019-03-20T03:37:24.337Z,0.72
2019-03-20T03:39:52.617Z,0.58
2019-03-20T03:42:19.709Z,0.45
2019-03-20T03:44:46.772Z,0.28
2019-03-20T03:47:14.184Z,0.27
2019-03-20T03:49:43.511Z,0.24
2019-03-20T03:52:10.569Z,0.24
2019-03-20T03:54:38.064Z,0.29
2019-03-20T03:57:05.499Z,0.18
2019-03-20T03:59:32.547Z,0.07
2019-03-20T04:01:59.596Z,-0.04
2019-03-20T04:04:26.684Z,0.19
2019-03-20T04:06:53.727Z,0.27
2019-03-20T04:09:20.750Z,0.37
2019-03-20T04:11:47.849Z,0.39
2019-03-20T04:14:14.906Z,0.41
2019-03-20T04:16:41.972Z,0.49
2019-03-20T04:19:09.027Z,0.54
2019-03-20T04:21:36.089Z,0.53
2019-03-20T04:24:03.536Z,0.46
2019-03-20T04:26:30.629Z,0.39
2019-03-20T04:28:58.143Z,0.28
2019-03-20T04:31:25.202Z,0.12
2019-03-20T04:33:52.650Z,0.26
2019-03-20T04:36:19.678Z,0.35
2019-03-20T04:38:46.732Z,0.27
2019-03-20T04:41:13.827Z,-0.03
2019-03-20T04:43:40.892Z,0.14
2019-03-20T04:46:07.906Z,0.04
2019-03-20T04:48:35.374Z,0.06
2019-03-20T04:51:02.407Z,-0.19
2019-03-20T04:53:29.451Z,0.08
2019-03-20T04:55:59.319Z,0.39
2019-03-20T04:58:26.325Z,0.47
2019-03-20T05:00:53.491Z,0.27
2019-03-20T05:03:20.896Z,-0.19
2019-03-20T05:05:47.911Z,-0.47
2019-03-20T05:08:14.929Z,-0.88
2019-03-20T05:10:42.345Z,-1.26
2019-03-20T05:13:09.354Z,-1.56
2019-03-20T05:15:36.386Z,-1.59
2019-03-20T05:18:03.480Z,-1.73
2019-03-20T05:20:30.506Z,-1.72
2019-03-20T05:22:57.655Z,-1.72
2019-03-20T05:25:24.751Z,-1.74
2019-03-20T05:27:51.823Z,-1.69
2019-03-20T05:30:19.495Z,-1.59
2019-03-20T05:32:46.579Z,-1.52
2019-03-20T05:35:13.587Z,-1.63
2019-03-20T05:37:40.968Z,-1.77
2019-03-20T05:40:09.720Z,-1.66
2019-03-20T05:42:36.780Z,-1.53
2019-03-20T05:45:05.198Z,-1.29
2019-03-20T05:47:32.294Z,-0.92
2019-03-20T05:49:59.355Z,-0.44
2019-03-20T05:52:26.403Z,-0.04
2019-03-20T05:54:54.651Z,0.19
2019-03-20T05:57:21.877Z,0.27
2019-03-20T05:59:49.289Z,0.40
2019-03-20T06:02:16.788Z,0.54
2019-03-20T06:04:43.829Z,0.71
2019-03-20T06:07:20.869Z,1.18
2019-03-20T06:09:39.922Z,1.57
2019-03-20T06:12:07.000Z,1.96
2019-03-20T06:14:34.255Z,2.25
2019-03-20T06:17:01.854Z,2.53
2019-03-20T06:19:28.887Z,2.84
2019-03-20T06:21:55.945Z,2.95
2019-03-20T06:24:41.872Z,3.34
2019-03-20T06:27:18.804Z,3.67
2019-03-20T06:29:46.817Z,4.04
2019-03-20T06:32:13.891Z,4.02
2019-03-20T06:41:43.826Z,4.80
2019-03-20T06:44:12.697Z,5.15
2019-03-20T06:46:40.030Z,5.54
2019-03-20T06:49:08.063Z,6.08
2019-03-20T06:51:35.214Z,6.76
2019-03-20T06:54:02.233Z,7.20
2019-03-20T06:56:30.073Z,7.50
2019-03-20T06:59:48.127Z,7.67
2019-03-20T07:02:17.905Z,7.89
2019-03-20T07:05:10.999Z,8.42
2019-03-20T07:07:43.934Z,8.89
2019-03-20T07:10:22.087Z,9.61
2019-03-20T07:12:49.294Z,10.19
2019-03-20T07:15:16.343Z,9.57
2019-03-20T07:17:43.404Z,9.28
2019-03-20T07:20:10.917Z,9.68
2019-03-20T07:22:37.973Z,9.79
2019-03-20T07:25:05.082Z,9.92
2019-03-20T07:27:32.188Z,10.16
2019-03-20T07:29:59.247Z,8.59
2019-03-20T07:36:23.155Z,6.82
2019-03-20T07:38:56.787Z,7.15
2019-03-20T07:41:27.751Z,7.44
2019-03-20T07:43:54.920Z,8.98
2019-03-20T07:46:21.995Z,9.88
2019-03-20T07:48:49.056Z,10.83
2019-03-20T07:51:17.258Z,11.71
2019-03-20T07:53:46.995Z,12.49
2019-03-20T07:56:14.062Z,13.24
2019-03-20T07:58:41.090Z,13.41
2019-03-20T08:01:08.176Z,13.46
2019-03-20T08:03:37.479Z,13.91
2019-03-20T08:06:04.955Z,14.49
2019-03-20T08:08:33.343Z,14.78
2019-03-20T08:11:00.614Z,13.98
2019-03-20T08:13:27.711Z,12.91
2019-03-20T08:15:54.790Z,13.95
2019-03-20T08:18:22.419Z,14.21
2019-03-20T08:20:49.481Z,14.47
2019-03-20T08:23:16.650Z,14.38
2019-03-20T08:25:43.713Z,12.34
2019-03-20T08:28:14.864Z,12.88
2019-03-20T08:30:41.937Z,13.02
2019-03-20T08:33:09.707Z,13.72
2019-03-20T08:35:48.217Z,8.66
2019-03-20T08:38:18.719Z,8.04
2019-03-20T08:40:45.777Z,7.55
2019-03-20T08:43:14.052Z,8.67
2019-03-20T08:45:41.127Z,7.41
2019-03-20T08:48:08.527Z,6.22
2019-03-20T08:50:35.616Z,6.34
2019-03-20T08:53:04.384Z,6.53
2019-03-20T08:55:31.522Z,6.55
2019-03-20T08:57:58.708Z,7.24
2019-03-20T09:00:35.718Z,6.95
2019-03-20T09:03:03.279Z,7.22
2019-03-20T09:05:30.377Z,6.88
2019-03-20T09:07:57.605Z,7.53
2019-03-20T09:10:24.701Z,7.74
2019-03-20T09:12:51.765Z,8.99
2019-03-20T09:15:20.646Z,10.69
2019-03-20T09:17:47.934Z,10.83
2019-03-20T09:20:18.624Z,10.84
2019-03-20T09:22:48.578Z,12.48
2019-03-20T09:25:15.898Z,13.10
2019-03-20T09:27:43.286Z,14.63
2019-03-20T09:30:16.261Z,15.46
2019-03-20T09:32:45.211Z,13.06
2019-03-20T09:35:12.439Z,13.17
2019-03-20T09:37:50.908Z,15.16
2019-03-20T09:40:10.044Z,16.87
2019-03-20T09:42:37.082Z,18.09
2019-03-20T09:45:07.237Z,19.30
2019-03-20T09:47:34.385Z,20.84
2019-03-20T09:50:01.547Z,21.86
2019-03-20T09:52:29.063Z,22.61
2019-03-20T09:54:56.194Z,23.24
2019-03-20T09:57:23.421Z,24.00
2019-03-20T09:59:50.529Z,24.31
2019-03-20T10:02:17.660Z,24.51
2019-03-20T10:04:44.892Z,25.45
2019-03-20T10:07:11.966Z,24.22
2019-03-20T10:09:40.431Z,23.40
2019-03-20T10:12:07.549Z,19.79
2019-03-20T10:14:34.642Z,21.79
2019-03-20T10:17:01.678Z,24.34
2019-03-20T10:19:28.749Z,23.08
2019-03-20T10:21:55.869Z,25.09
2019-03-20T10:24:23.620Z,27.22
2019-03-20T10:26:50.819Z,29.16
2019-03-20T10:29:17.872Z,25.06
2019-03-20T10:31:44.967Z,23.81
2019-03-20T10:34:13.241Z,24.87
2019-03-20T10:36:40.456Z,27.08
2019-03-20T10:39:07.738Z,29.05
2019-03-20T10:41:34.875Z,29.40
2019-03-20T10:44:01.988Z,28.98
2019-03-20T10:46:29.082Z,26.58
2019-03-20T10:48:56.596Z,27.24
2019-03-20T10:51:25.517Z,28.57
2019-03-20T10:53:52.565Z,27.46
2019-03-20T10:56:19.608Z,29.43
2019-03-20T10:58:46.682Z,32.21
2019-03-20T11:01:13.752Z,34.11
2019-03-20T11:03:41.344Z,34.25
2019-03-20T11:06:13.886Z,34.36
2019-03-20T11:08:40.915Z,34.80
2019-03-20T11:11:07.949Z,27.50
2019-03-20T11:13:35.090Z,25.73
2019-03-20T11:16:02.160Z,21.73
2019-03-20T11:18:29.694Z,23.65
2019-03-20T11:20:57.108Z,24.75
2019-03-20T11:23:24.132Z,27.94
2019-03-20T11:25:51.586Z,30.21
2019-03-20T11:28:18.655Z,30.70
2019-03-20T11:30:46.778Z,26.23
2019-03-20T11:33:13.822Z,28.40
2019-03-20T11:35:42.552Z,30.84
2019-03-20T11:38:09.698Z,28.26
2019-03-20T11:40:36.767Z,27.90
2019-03-20T11:43:04.463Z,26.15
2019-03-20T11:45:31.690Z,30.11
2019-03-20T11:47:58.964Z,33.23
2019-03-20T11:50:42.575Z,32.50
2019-03-20T11:53:09.643Z,30.82
2019-03-20T11:55:36.718Z,29.03
2019-03-20T11:58:05.589Z,27.07
2019-03-20T12:00:33.012Z,29.61
2019-03-20T12:03:00.431Z,23.26
2019-03-20T12:05:31.079Z,20.91
2019-03-20T12:08:00.025Z,21.08
2019-03-20T12:10:28.332Z,23.05
2019-03-20T12:12:55.409Z,27.80
2019-03-20T12:15:22.934Z,31.73
2019-03-20T12:17:50.115Z,34.32
2019-03-20T12:20:18.055Z,36.13
2019-03-20T12:27:14.960Z,35.56
2019-03-20T12:29:39.721Z,35.26
2019-03-20T12:32:07.040Z,37.59
2019-03-20T12:34:36.407Z,38.96
2019-03-20T12:37:06.934Z,38.08
2019-03-20T12:39:34.974Z,39.19
2019-03-20T12:42:03.263Z,40.02
2019-03-20T12:44:30.387Z,40.09
2019-03-20T12:46:57.809Z,38.92
2019-03-20T12:49:25.188Z,36.75
2019-03-20T12:51:52.586Z,38.96
2019-03-20T12:54:19.610Z,33.20
2019-03-20T12:56:46.638Z,32.40
2019-03-20T12:59:14.150Z,32.63
2019-03-20T13:01:41.258Z,28.75
2019-03-20T13:04:08.310Z,20.68
2019-03-20T13:06:35.398Z,20.75
2019-03-20T13:09:04.704Z,26.35
2019-03-20T13:11:33.645Z,26.99
2019-03-20T13:14:01.401Z,23.95
2019-03-20T13:16:29.595Z,22.23
2019-03-20T13:18:56.603Z,20.15
2019-03-20T13:21:24.168Z,23.57
2019-03-20T13:23:51.300Z,21.15
2019-03-20T13:26:19.124Z,23.54
2019-03-20T13:28:46.706Z,23.15
2019-03-20T13:31:16.713Z,24.16
2019-03-20T13:33:43.782Z,26.16
2019-03-20T13:36:10.879Z,25.34
2019-03-20T13:38:37.969Z,22.99
2019-03-20T13:41:05.183Z,20.01
2019-03-20T13:43:34.366Z,21.39
2019-03-20T13:46:02.604Z,20.85
2019-03-20T13:48:29.639Z,24.37
2019-03-20T13:50:56.744Z,30.59
2019-03-20T13:53:24.023Z,30.52
2019-03-20T13:55:51.137Z,32.23
2019-03-20T13:58:18.233Z,32.97
2019-03-20T14:00:45.266Z,23.86
2019-03-20T14:03:12.402Z,26.52
2019-03-20T14:05:39.508Z,27.62
2019-03-20T14:08:09.657Z,30.62
2019-03-20T14:10:49.653Z,34.43
2019-03-20T14:16:26.228Z,34.20
2019-03-20T14:18:53.340Z,37.56
2019-03-20T14:21:20.370Z,38.49
2019-03-20T14:23:48.699Z,37.76
2019-03-20T14:26:16.144Z,34.68
2019-03-20T14:28:45.274Z,30.55
2019-03-20T14:31:12.402Z,28.95
2019-03-20T14:33:39.514Z,30.29
2019-03-20T14:36:07.589Z,33.61
2019-03-20T14:38:34.765Z,31.44
2019-03-20T14:41:02.295Z,31.94
2019-03-20T14:43:29.680Z,27.47
2019-03-20T14:45:56.819Z,27.77
2019-03-20T14:48:23.899Z,26.77
2019-03-20T14:50:51.040Z,27.68
2019-03-20T14:53:18.577Z,25.23
2019-03-20T14:55:45.718Z,24.68
2019-03-20T14:58:12.752Z,27.01
2019-03-20T15:00:40.236Z,26.89
2019-03-20T15:03:07.352Z,26.54
2019-03-20T15:05:36.177Z,28.16
2019-03-20T15:08:05.242Z,32.63
2019-03-20T15:10:32.574Z,32.96
2019-03-20T15:13:01.886Z,34.00
2019-03-20T15:15:35.253Z,32.79
2019-03-20T15:18:02.597Z,33.79
2019-03-20T15:20:30.160Z,30.19
2019-03-20T15:22:58.403Z,28.80
2019-03-20T15:25:25.571Z,28.74
2019-03-20T15:27:54.347Z,26.26
2019-03-20T15:30:21.741Z,26.74
2019-03-20T15:32:48.789Z,22.34
2019-03-20T15:35:16.451Z,23.24
2019-03-20T15:37:44.358Z,22.68
2019-03-20T15:40:13.047Z,26.43
2019-03-20T15:42:40.103Z,23.15
2019-03-20T15:45:08.355Z,26.39
2019-03-20T15:47:35.430Z,26.73
2019-03-20T15:50:03.635Z,28.58
2019-03-20T15:52:30.752Z,31.53
2019-03-20T15:55:01.437Z,32.53
2019-03-20T15:57:29.596Z,26.60
2019-03-20T15:59:56.659Z,29.02
2019-03-20T16:02:23.947Z,29.97
2019-03-20T16:04:51.000Z,31.31
2019-03-20T16:07:18.225Z,31.02
2019-03-20T16:09:47.102Z,31.15
2019-03-20T16:12:14.134Z,30.29
2019-03-20T16:14:41.237Z,30.42
2019-03-20T16:17:08.796Z,30.40
2019-03-20T16:19:37.092Z,30.51
2019-03-20T16:22:05.980Z,30.52
2019-03-20T16:24:38.290Z,30.92
2019-03-20T16:27:10.607Z,30.83
2019-03-20T16:29:38.078Z,30.95
2019-03-20T16:32:10.126Z,30.43
2019-03-20T16:34:37.288Z,29.20
2019-03-20T16:37:04.361Z,28.37
2019-03-20T16:39:31.731Z,26.51
2019-03-20T16:41:58.823Z,22.46
2019-03-20T16:44:26.212Z,22.85
2019-03-20T16:46:53.282Z,22.87
2019-03-20T16:49:20.587Z,23.37
2019-03-20T16:51:48.118Z,23.71
2019-03-20T16:54:15.285Z,23.74
2019-03-20T16:56:42.361Z,23.21
2019-03-20T16:59:09.433Z,23.04
2019-03-20T17:01:36.933Z,22.99
2019-03-20T17:04:04.387Z,23.18
2019-03-20T17:06:31.475Z,22.42
2019-03-20T17:08:58.864Z,21.47
2019-03-20T17:11:34.465Z,20.62
2019-03-20T17:13:55.294Z,20.19
2019-03-20T17:16:24.215Z,19.66
2019-03-20T17:18:51.359Z,19.30
2019-03-20T17:21:18.552Z,18.34
2019-03-20T17:23:46.726Z,17.53
2019-03-20T17:26:13.964Z,16.96
2019-03-20T17:28:44.472Z,16.38
2019-03-20T17:31:12.030Z,15.73
2019-03-20T17:33:39.630Z,15.24
2019-03-20T17:36:06.757Z,14.66
2019-03-20T17:38:33.888Z,14.22
2019-03-20T17:41:01.230Z,13.78
2019-03-20T17:43:30.539Z,13.29
2019-03-20T17:45:58.022Z,13.06
2019-03-20T17:48:25.563Z,12.93
2019-03-20T17:50:52.642Z,12.86
2019-03-20T17:53:20.025Z,12.67
2019-03-20T17:55:48.547Z,12.56
2019-03-20T17:58:15.634Z,12.43
2019-03-20T18:00:44.788Z,12.25
2019-03-20T18:03:12.626Z,12.01
2019-03-20T18:05:40.039Z,11.86
2019-03-20T18:08:07.087Z,11.77
2019-03-20T18:10:34.750Z,11.67
2019-03-20T18:13:02.113Z,11.52
2019-03-20T18:15:30.911Z,11.34
2019-03-20T18:18:01.220Z,11.31
2019-03-20T18:20:28.304Z,11.26
2019-03-20T18:22:55.547Z,11.25
2019-03-20T18:25:27.273Z,11.23
2019-03-20T18:27:54.387Z,11.08
2019-03-20T18:30:22.106Z,11.04
2019-03-20T18:32:49.246Z,10.98
2019-03-20T18:35:17.546Z,11.04
2019-03-20T18:37:44.926Z,11.23
2019-03-20T18:40:13.837Z,11.21
2019-03-20T18:42:41.543Z,11.04
2019-03-20T18:45:16.086Z,10.82
2019-03-20T18:47:43.320Z,10.68
2019-03-20T18:50:12.921Z,10.53
2019-03-20T18:52:40.448Z,10.54
2019-03-20T18:55:08.526Z,10.52
2019-03-20T18:57:36.785Z,10.41
2019-03-20T19:00:06.134Z,10.16
2019-03-20T19:02:33.378Z,9.96
2019-03-20T19:05:00.449Z,9.76
2019-03-20T19:07:28.107Z,9.58
2019-03-20T19:09:55.479Z,9.45
2019-03-20T19:12:22.552Z,9.37
2019-03-20T19:14:51.646Z,9.24
2019-03-20T19:17:19.032Z,9.05
2019-03-20T19:19:46.380Z,9.04
2019-03-20T19:22:13.746Z,9.16
2019-03-20T19:24:40.866Z,8.88
2019-03-20T19:27:10.926Z,8.70
2019-03-20T19:29:38.526Z,8.75
2019-03-20T19:32:05.574Z,8.91
2019-03-20T19:34:32.640Z,8.85
2019-03-20T19:37:00.000Z,8.67
2019-03-20T19:39:27.058Z,8.51
2019-03-20T19:41:58.787Z,8.36
2019-03-20T19:44:25.916Z,8.50
2019-03-20T19:46:53.010Z,8.66
2019-03-20T19:49:20.553Z,8.26
2019-03-20T19:51:47.693Z,8.29
2019-03-20T19:54:14.869Z,8.35
2019-03-20T19:56:42.921Z,8.30
2019-03-20T19:59:10.030Z,8.19
2019-03-20T20:01:37.104Z,8.05
2019-03-20T20:04:04.177Z,8.00
2019-03-20T20:06:31.395Z,8.09
2019-03-20T20:08:58.589Z,7.70
2019-03-20T20:11:25.725Z,7.36
2019-03-20T20:13:52.828Z,7.29
2019-03-20T20:16:19.865Z,7.29
2019-03-20T20:18:48.873Z,7.09
2019-03-20T20:21:17.604Z,6.89
2019-03-20T20:23:44.657Z,6.98
2019-03-20T20:26:12.443Z,7.09
2019-03-20T20:28:40.155Z,7.16
2019-03-20T20:31:07.345Z,7.40
2019-03-20T20:33:34.599Z,7.11
2019-03-20T20:36:01.703Z,6.53
2019-03-20T20:38:29.073Z,6.75
2019-03-20T20:40:56.107Z,6.84
2019-03-20T20:43:23.769Z,7.00
2019-03-20T20:45:51.015Z,7.02
2019-03-20T20:48:18.067Z,6.94
2019-03-20T20:50:45.315Z,6.91
2019-03-20T20:53:12.538Z,7.16
2019-03-20T20:55:39.588Z,7.24
2019-03-20T20:58:06.790Z,7.11
2019-03-20T21:00:33.914Z,6.97
2019-03-20T21:03:01.333Z,6.99
2019-03-20T21:05:28.494Z,6.89
2019-03-20T21:07:55.528Z,6.83
2019-03-20T21:10:22.570Z,6.77
2019-03-20T21:12:56.062Z,6.82
2019-03-20T21:15:40.270Z,6.63
2019-03-20T21:18:55.702Z,6.85
2019-03-20T21:21:34.387Z,7.04
2019-03-20T21:24:27.054Z,7.03
2019-03-20T21:27:42.079Z,6.77
2019-03-20T21:31:08.921Z,6.41
2019-03-20T21:34:14.505Z,6.41
2019-03-20T21:37:18.374Z,6.38
2019-03-20T21:39:47.396Z,6.36
2019-03-20T21:43:06.849Z,5.90
2019-03-20T21:46:18.972Z,5.69
2019-03-20T21:48:46.617Z,5.63
2019-03-20T21:51:15.473Z,5.74
2019-03-20T21:54:21.636Z,5.95
2019-03-20T21:57:27.059Z,5.98
2019-03-20T22:00:39.520Z,5.98
2019-03-20T22:03:07.395Z,5.90
2019-03-20T22:06:22.467Z,5.88
2019-03-20T22:08:50.429Z,5.95
2019-03-20T22:11:53.353Z,6.11
2019-03-20T22:14:20.927Z,5.86
2019-03-20T22:17:25.052Z,5.48
2019-03-20T22:20:33.537Z,5.39
2019-03-20T22:23:09.699Z,5.39
2019-03-20T22:26:17.867Z,5.23
2019-03-20T22:29:26.774Z,5.22
2019-03-20T22:32:51.004Z,5.30
2019-03-20T22:35:40.711Z,5.40
2019-03-20T22:38:21.816Z,5.62
2019-03-20T22:41:28.981Z,5.37
2019-03-20T22:44:00.615Z,5.72
2019-03-20T22:47:08.740Z,5.80
2019-03-20T22:50:12.360Z,5.77
2019-03-20T22:53:19.022Z,5.68
2019-03-20T22:56:19.353Z,5.48
2019-03-20T22:58:47.524Z,5.31
2019-03-20T23:01:44.709Z,5.22
2019-03-20T23:04:20.370Z,5.16
2019-03-20T23:06:49.074Z,5.15
2019-03-20T23:09:18.955Z,5.13
2019-03-20T23:11:52.226Z,5.31
2019-03-20T23:14:23.996Z,5.45
2019-03-20T23:16:51.577Z,5.40
2019-03-20T23:19:19.410Z,5.37
2019-03-20T23:21:46.976Z,5.30
2019-03-20T23:24:14.669Z,5.22
2019-03-20T23:26:42.717Z,5.10
2019-03-20T23:29:10.407Z,4.99
2019-03-20T23:31:39.931Z,5.03
2019-03-20T23:34:08.606Z,5.11
2019-03-20T23:36:36.196Z,5.18
2019-03-20T23:39:07.050Z,5.14
2019-03-20T23:41:34.798Z,5.08
2019-03-20T23:44:04.662Z,5.03
2019-03-20T23:46:32.393Z,4.95
2019-03-20T23:49:04.210Z,5.00
2019-03-20T23:51:33.732Z,5.10
2019-03-20T23:54:01.976Z,4.15
2019-03-20T23:56:31.670Z,4.23
2019-03-20T23:58:59.310Z,4.62
